sensor_id;sensor_type;location;lat;lon;timestamp;temperature;humidity
17381;DHT22;8808;52.478;13.378;2023-11-25T00:01:02;2.60;99.90
17381;DHT22;8808;52.478;13.378;2023-11-25T00:03:29;2.60;99.90
17381;DHT22;8808;52.478;13.378;2023-11-25T00:05:56;2.60;99.90
17381;DHT22;8808;52.478;13.378;2023-11-25T00:08:26;2.50;99.90
17381;DHT22;8808;52.478;13.378;2023-11-25T00:10:53;2.60;99.90
17381;DHT22;8808;52.478;13.378;2023-11-25T00:13:20;2.50;99.90
17381;DHT22;8808;52.478;13.378;2023-11-25T00:15:47;2.60;99.90
17381;DHT22;8808;52.478;13.378;2023-11-25T00:18:14;2.50;99.90
17381;DHT22;8808;52.478;13.378;2023-11-25T00:20:41;2.50;99.90
17381;DHT22;8808;52.478;13.378;2023-11-25T00:23:09;2.50;99.90
17381;DHT22;8808;52.478;13.378;2023-11-25T00:25:38;2.40;99.90
17381;DHT22;8808;52.478;13.378;2023-11-25T00:28:06;2.50;99.90
17381;DHT22;8808;52.478;13.378;2023-11-25T00:30:35;2.50;99.90
17381;DHT22;8808;52.478;13.378;2023-11-25T00:33:02;2.50;99.90
17381;DHT22;8808;52.478;13.378;2023-11-25T00:35:29;2.50;99.90
17381;DHT22;8808;52.478;13.378;2023-11-25T00:37:57;2.50;99.90
17381;DHT22;8808;52.478;13.378;2023-11-25T00:40:24;2.40;99.90
17381;DHT22;8808;52.478;13.378;2023-11-25T00:42:53;2.50;99.90
17381;DHT22;8808;52.478;13.378;2023-11-25T00:45:20;2.40;99.90
17381;DHT22;8808;52.478;13.378;2023-11-25T00:47:51;2.40;99.90
17381;DHT22;8808;52.478;13.378;2023-11-25T00:50:18;2.50;99.90
17381;DHT22;8808;52.478;13.378;2023-11-25T00:52:45;2.40;99.90
17381;DHT22;8808;52.478;13.378;2023-11-25T00:55:12;2.40;99.90
17381;DHT22;8808;52.478;13.378;2023-11-25T00:57:39;2.50;99.90
17381;DHT22;8808;52.478;13.378;2023-11-25T01:00:08;2.50;99.90
17381;DHT22;8808;52.478;13.378;2023-11-25T01:02:41;2.60;99.90
17381;DHT22;8808;52.478;13.378;2023-11-25T01:05:08;2.50;99.90
17381;DHT22;8808;52.478;13.378;2023-11-25T01:07:35;2.50;99.90
17381;DHT22;8808;52.478;13.378;2023-11-25T01:10:03;2.50;99.90
17381;DHT22;8808;52.478;13.378;2023-11-25T01:12:31;2.40;99.90
17381;DHT22;8808;52.478;13.378;2023-11-25T01:15:01;2.50;99.90
17381;DHT22;8808;52.478;13.378;2023-11-25T01:17:29;2.40;99.90
17381;DHT22;8808;52.478;13.378;2023-11-25T01:19:56;2.50;99.90
17381;DHT22;8808;52.478;13.378;2023-11-25T01:22:23;2.50;99.90
17381;DHT22;8808;52.478;13.378;2023-11-25T01:24:51;2.40;99.90
17381;DHT22;8808;52.478;13.378;2023-11-25T01:27:18;2.30;99.90
17381;DHT22;8808;52.478;13.378;2023-11-25T01:29:46;2.50;99.90
17381;DHT22;8808;52.478;13.378;2023-11-25T01:32:13;2.50;99.90
17381;DHT22;8808;52.478;13.378;2023-11-25T01:34:41;2.40;99.90
17381;DHT22;8808;52.478;13.378;2023-11-25T01:37:08;2.50;99.90
17381;DHT22;8808;52.478;13.378;2023-11-25T01:39:37;2.60;99.90
17381;DHT22;8808;52.478;13.378;2023-11-25T01:42:04;2.40;99.90
17381;DHT22;8808;52.478;13.378;2023-11-25T01:44:32;2.50;99.90
17381;DHT22;8808;52.478;13.378;2023-11-25T01:46:59;2.60;99.90
17381;DHT22;8808;52.478;13.378;2023-11-25T01:49:26;2.70;99.90
17381;DHT22;8808;52.478;13.378;2023-11-25T01:51:55;2.70;99.90
17381;DHT22;8808;52.478;13.378;2023-11-25T01:54:22;2.60;99.90
17381;DHT22;8808;52.478;13.378;2023-11-25T01:56:58;2.70;99.90
17381;DHT22;8808;52.478;13.378;2023-11-25T01:59:27;2.70;99.90
17381;DHT22;8808;52.478;13.378;2023-11-25T02:04:32;2.70;99.90
17381;DHT22;8808;52.478;13.378;2023-11-25T02:07:00;2.70;99.90
17381;DHT22;8808;52.478;13.378;2023-11-25T02:09:27;2.60;99.90
17381;DHT22;8808;52.478;13.378;2023-11-25T02:11:55;2.60;99.90
17381;DHT22;8808;52.478;13.378;2023-11-25T02:14:23;2.60;99.90
17381;DHT22;8808;52.478;13.378;2023-11-25T02:16:50;2.70;99.90
17381;DHT22;8808;52.478;13.378;2023-11-25T02:19:18;2.70;99.90
17381;DHT22;8808;52.478;13.378;2023-11-25T02:21:45;2.80;99.90
17381;DHT22;8808;52.478;13.378;2023-11-25T02:24:13;2.90;99.90
17381;DHT22;8808;52.478;13.378;2023-11-25T02:26:40;2.80;99.90
17381;DHT22;8808;52.478;13.378;2023-11-25T02:29:08;2.80;99.90
17381;DHT22;8808;52.478;13.378;2023-11-25T02:31:35;2.70;99.90
17381;DHT22;8808;52.478;13.378;2023-11-25T02:34:04;2.80;99.90
17381;DHT22;8808;52.478;13.378;2023-11-25T02:36:33;2.80;99.90
17381;DHT22;8808;52.478;13.378;2023-11-25T02:39:00;2.90;99.90
17381;DHT22;8808;52.478;13.378;2023-11-25T02:41:28;2.80;99.90
17381;DHT22;8808;52.478;13.378;2023-11-25T02:43:55;2.80;99.90
17381;DHT22;8808;52.478;13.378;2023-11-25T02:46:22;2.90;99.90
17381;DHT22;8808;52.478;13.378;2023-11-25T02:48:50;2.90;99.90
17381;DHT22;8808;52.478;13.378;2023-11-25T02:51:17;3.00;99.90
17381;DHT22;8808;52.478;13.378;2023-11-25T02:53:45;2.90;99.90
17381;DHT22;8808;52.478;13.378;2023-11-25T02:56:12;2.90;99.90
17381;DHT22;8808;52.478;13.378;2023-11-25T02:58:40;2.90;99.90
17381;DHT22;8808;52.478;13.378;2023-11-25T03:01:08;2.90;99.90
17381;DHT22;8808;52.478;13.378;2023-11-25T03:03:37;2.80;99.90
17381;DHT22;8808;52.478;13.378;2023-11-25T03:06:08;2.80;99.90
17381;DHT22;8808;52.478;13.378;2023-11-25T03:08:35;2.80;99.90
17381;DHT22;8808;52.478;13.378;2023-11-25T03:11:02;2.80;99.90
17381;DHT22;8808;52.478;13.378;2023-11-25T03:13:39;2.80;99.90
17381;DHT22;8808;52.478;13.378;2023-11-25T03:16:07;2.80;99.90
17381;DHT22;8808;52.478;13.378;2023-11-25T03:18:36;2.70;99.90
17381;DHT22;8808;52.478;13.378;2023-11-25T03:21:03;2.60;99.90
17381;DHT22;8808;52.478;13.378;2023-11-25T03:23:30;2.80;99.90
17381;DHT22;8808;52.478;13.378;2023-11-25T03:25:57;2.80;99.90
17381;DHT22;8808;52.478;13.378;2023-11-25T03:28:24;2.80;99.90
17381;DHT22;8808;52.478;13.378;2023-11-25T03:30:53;2.80;99.90
17381;DHT22;8808;52.478;13.378;2023-11-25T03:33:20;2.90;99.90
17381;DHT22;8808;52.478;13.378;2023-11-25T03:35:48;2.80;99.90
17381;DHT22;8808;52.478;13.378;2023-11-25T03:38:15;2.80;99.90
17381;DHT22;8808;52.478;13.378;2023-11-25T03:40:42;2.70;99.90
17381;DHT22;8808;52.478;13.378;2023-11-25T03:43:08;2.70;99.90
17381;DHT22;8808;52.478;13.378;2023-11-25T03:45:36;2.80;99.90
17381;DHT22;8808;52.478;13.378;2023-11-25T03:48:05;2.70;99.90
17381;DHT22;8808;52.478;13.378;2023-11-25T03:50:32;2.70;99.90
17381;DHT22;8808;52.478;13.378;2023-11-25T03:52:59;2.80;99.90
17381;DHT22;8808;52.478;13.378;2023-11-25T03:55:27;2.80;99.90
17381;DHT22;8808;52.478;13.378;2023-11-25T03:57:54;2.70;99.90
17381;DHT22;8808;52.478;13.378;2023-11-25T04:00:21;2.80;99.90
17381;DHT22;8808;52.478;13.378;2023-11-25T04:02:48;2.90;99.90
17381;DHT22;8808;52.478;13.378;2023-11-25T04:05:18;2.90;99.90
17381;DHT22;8808;52.478;13.378;2023-11-25T04:07:45;2.70;99.90
17381;DHT22;8808;52.478;13.378;2023-11-25T04:10:13;2.80;99.90
17381;DHT22;8808;52.478;13.378;2023-11-25T04:12:41;2.80;99.90
17381;DHT22;8808;52.478;13.378;2023-11-25T04:15:10;2.90;99.90
17381;DHT22;8808;52.478;13.378;2023-11-25T04:17:37;3.00;99.90
17381;DHT22;8808;52.478;13.378;2023-11-25T04:20:06;3.00;99.90
17381;DHT22;8808;52.478;13.378;2023-11-25T04:22:40;3.00;99.90
17381;DHT22;8808;52.478;13.378;2023-11-25T04:25:08;3.00;99.90
17381;DHT22;8808;52.478;13.378;2023-11-25T04:27:35;3.00;99.90
17381;DHT22;8808;52.478;13.378;2023-11-25T04:30:02;3.00;99.90
17381;DHT22;8808;52.478;13.378;2023-11-25T04:32:30;3.00;99.90
17381;DHT22;8808;52.478;13.378;2023-11-25T04:34:58;3.00;99.90
17381;DHT22;8808;52.478;13.378;2023-11-25T04:37:25;3.00;99.90
17381;DHT22;8808;52.478;13.378;2023-11-25T04:39:53;3.00;99.90
17381;DHT22;8808;52.478;13.378;2023-11-25T04:42:20;3.00;99.90
17381;DHT22;8808;52.478;13.378;2023-11-25T04:44:47;3.10;99.90
17381;DHT22;8808;52.478;13.378;2023-11-25T04:47:14;3.00;99.90
17381;DHT22;8808;52.478;13.378;2023-11-25T04:49:41;3.00;99.90
17381;DHT22;8808;52.478;13.378;2023-11-25T04:52:09;3.00;99.90
17381;DHT22;8808;52.478;13.378;2023-11-25T04:54:35;3.00;99.90
17381;DHT22;8808;52.478;13.378;2023-11-25T04:57:05;3.00;99.90
17381;DHT22;8808;52.478;13.378;2023-11-25T04:59:32;3.00;99.90
17381;DHT22;8808;52.478;13.378;2023-11-25T05:01:59;3.00;99.90
17381;DHT22;8808;52.478;13.378;2023-11-25T05:04:27;2.90;99.90
17381;DHT22;8808;52.478;13.378;2023-11-25T05:06:54;2.90;99.90
17381;DHT22;8808;52.478;13.378;2023-11-25T05:09:21;2.90;99.90
17381;DHT22;8808;52.478;13.378;2023-11-25T05:11:51;2.80;99.90
17381;DHT22;8808;52.478;13.378;2023-11-25T05:14:20;2.60;99.90
17381;DHT22;8808;52.478;13.378;2023-11-25T05:16:47;2.60;99.90
17381;DHT22;8808;52.478;13.378;2023-11-25T05:19:14;2.60;99.90
17381;DHT22;8808;52.478;13.378;2023-11-25T05:21:42;2.70;99.90
17381;DHT22;8808;52.478;13.378;2023-11-25T05:24:09;2.60;99.90
17381;DHT22;8808;52.478;13.378;2023-11-25T05:26:36;2.60;99.90
17381;DHT22;8808;52.478;13.378;2023-11-25T05:29:03;2.50;99.90
17381;DHT22;8808;52.478;13.378;2023-11-25T05:31:32;2.50;99.90
17381;DHT22;8808;52.478;13.378;2023-11-25T05:34:00;2.70;99.90
17381;DHT22;8808;52.478;13.378;2023-11-25T05:36:31;2.60;99.90
17381;DHT22;8808;52.478;13.378;2023-11-25T05:38:58;2.70;99.90
17381;DHT22;8808;52.478;13.378;2023-11-25T05:41:26;2.50;99.90
17381;DHT22;8808;52.478;13.378;2023-11-25T05:43:53;2.50;99.90
17381;DHT22;8808;52.478;13.378;2023-11-25T05:46:21;2.40;99.90
17381;DHT22;8808;52.478;13.378;2023-11-25T05:48:51;2.50;99.90
17381;DHT22;8808;52.478;13.378;2023-11-25T05:51:19;2.50;99.90
17381;DHT22;8808;52.478;13.378;2023-11-25T05:53:46;2.50;99.90
17381;DHT22;8808;52.478;13.378;2023-11-25T05:56:13;2.50;99.90
17381;DHT22;8808;52.478;13.378;2023-11-25T05:58:40;2.60;99.90
17381;DHT22;8808;52.478;13.378;2023-11-25T06:01:07;2.60;99.90
17381;DHT22;8808;52.478;13.378;2023-11-25T06:03:34;2.50;99.90
17381;DHT22;8808;52.478;13.378;2023-11-25T06:06:02;2.40;99.90
17381;DHT22;8808;52.478;13.378;2023-11-25T06:08:33;2.30;99.90
17381;DHT22;8808;52.478;13.378;2023-11-25T06:11:00;2.40;99.90
17381;DHT22;8808;52.478;13.378;2023-11-25T06:13:26;2.30;99.90
17381;DHT22;8808;52.478;13.378;2023-11-25T06:15:54;2.30;99.90
17381;DHT22;8808;52.478;13.378;2023-11-25T06:18:22;2.30;99.90
17381;DHT22;8808;52.478;13.378;2023-11-25T06:20:50;2.30;99.90
17381;DHT22;8808;52.478;13.378;2023-11-25T06:23:18;2.30;99.90
17381;DHT22;8808;52.478;13.378;2023-11-25T06:25:45;2.30;99.90
17381;DHT22;8808;52.478;13.378;2023-11-25T06:28:13;2.30;99.90
17381;DHT22;8808;52.478;13.378;2023-11-25T06:30:40;2.20;99.90
17381;DHT22;8808;52.478;13.378;2023-11-25T06:33:09;2.20;99.90
17381;DHT22;8808;52.478;13.378;2023-11-25T06:35:36;2.10;99.90
17381;DHT22;8808;52.478;13.378;2023-11-25T06:38:03;2.20;99.90
17381;DHT22;8808;52.478;13.378;2023-11-25T06:40:32;2.20;99.90
17381;DHT22;8808;52.478;13.378;2023-11-25T06:43:01;2.10;99.90
17381;DHT22;8808;52.478;13.378;2023-11-25T06:45:28;2.10;99.90
17381;DHT22;8808;52.478;13.378;2023-11-25T06:47:54;2.20;99.90
17381;DHT22;8808;52.478;13.378;2023-11-25T06:50:21;2.20;99.90
17381;DHT22;8808;52.478;13.378;2023-11-25T06:52:48;2.20;99.90
17381;DHT22;8808;52.478;13.378;2023-11-25T06:55:17;2.10;99.90
17381;DHT22;8808;52.478;13.378;2023-11-25T06:57:47;2.00;99.90
17381;DHT22;8808;52.478;13.378;2023-11-25T07:00:15;2.00;99.90
17381;DHT22;8808;52.478;13.378;2023-11-25T07:02:42;2.20;99.90
17381;DHT22;8808;52.478;13.378;2023-11-25T07:05:09;2.10;99.90
17381;DHT22;8808;52.478;13.378;2023-11-25T07:07:40;2.10;99.90
17381;DHT22;8808;52.478;13.378;2023-11-25T07:10:07;2.10;99.90
17381;DHT22;8808;52.478;13.378;2023-11-25T07:12:36;2.20;99.90
17381;DHT22;8808;52.478;13.378;2023-11-25T07:15:06;2.20;99.90
17381;DHT22;8808;52.478;13.378;2023-11-25T07:17:33;2.20;99.90
17381;DHT22;8808;52.478;13.378;2023-11-25T07:20:02;2.30;99.90
17381;DHT22;8808;52.478;13.378;2023-11-25T07:22:31;2.20;99.90
17381;DHT22;8808;52.478;13.378;2023-11-25T07:24:58;2.30;99.90
17381;DHT22;8808;52.478;13.378;2023-11-25T07:27:25;2.30;99.90
17381;DHT22;8808;52.478;13.378;2023-11-25T07:29:52;2.20;99.90
17381;DHT22;8808;52.478;13.378;2023-11-25T07:32:21;2.30;99.90
17381;DHT22;8808;52.478;13.378;2023-11-25T07:34:48;2.30;99.90
17381;DHT22;8808;52.478;13.378;2023-11-25T07:37:15;2.30;99.90
17381;DHT22;8808;52.478;13.378;2023-11-25T07:39:44;2.30;99.90
17381;DHT22;8808;52.478;13.378;2023-11-25T07:42:11;2.30;99.90
17381;DHT22;8808;52.478;13.378;2023-11-25T07:44:38;2.30;99.90
17381;DHT22;8808;52.478;13.378;2023-11-25T07:47:05;2.20;99.90
17381;DHT22;8808;52.478;13.378;2023-11-25T07:49:33;2.30;99.90
17381;DHT22;8808;52.478;13.378;2023-11-25T07:52:00;2.30;99.90
17381;DHT22;8808;52.478;13.378;2023-11-25T07:54:27;2.30;99.90
17381;DHT22;8808;52.478;13.378;2023-11-25T07:56:55;2.20;99.90
17381;DHT22;8808;52.478;13.378;2023-11-25T07:59:22;2.30;99.90
17381;DHT22;8808;52.478;13.378;2023-11-25T08:01:49;2.40;99.90
17381;DHT22;8808;52.478;13.378;2023-11-25T08:04:17;2.30;99.90
17381;DHT22;8808;52.478;13.378;2023-11-25T08:06:45;2.20;99.90
17381;DHT22;8808;52.478;13.378;2023-11-25T08:09:13;2.20;99.90
17381;DHT22;8808;52.478;13.378;2023-11-25T08:11:41;2.30;99.90
17381;DHT22;8808;52.478;13.378;2023-11-25T08:14:08;2.70;99.90
17381;DHT22;8808;52.478;13.378;2023-11-25T08:16:35;2.60;99.90
17381;DHT22;8808;52.478;13.378;2023-11-25T08:19:01;2.60;99.90
17381;DHT22;8808;52.478;13.378;2023-11-25T08:21:29;2.60;99.90
17381;DHT22;8808;52.478;13.378;2023-11-25T08:23:57;2.50;99.90
17381;DHT22;8808;52.478;13.378;2023-11-25T08:26:25;2.70;99.90
17381;DHT22;8808;52.478;13.378;2023-11-25T08:28:53;2.80;99.90
17381;DHT22;8808;52.478;13.378;2023-11-25T08:31:21;2.90;99.90
17381;DHT22;8808;52.478;13.378;2023-11-25T08:33:48;2.90;99.90
17381;DHT22;8808;52.478;13.378;2023-11-25T08:36:15;3.00;99.90
17381;DHT22;8808;52.478;13.378;2023-11-25T08:38:43;3.10;99.90
17381;DHT22;8808;52.478;13.378;2023-11-25T08:41:12;3.10;99.90
17381;DHT22;8808;52.478;13.378;2023-11-25T08:43:39;3.00;99.90
17381;DHT22;8808;52.478;13.378;2023-11-25T08:46:09;3.00;99.90
17381;DHT22;8808;52.478;13.378;2023-11-25T08:48:36;3.00;99.90
17381;DHT22;8808;52.478;13.378;2023-11-25T08:51:03;3.00;99.90
17381;DHT22;8808;52.478;13.378;2023-11-25T08:53:31;2.90;99.90
17381;DHT22;8808;52.478;13.378;2023-11-25T08:55:58;3.00;99.90
17381;DHT22;8808;52.478;13.378;2023-11-25T08:58:29;2.90;99.90
17381;DHT22;8808;52.478;13.378;2023-11-25T09:00:56;2.90;99.90
17381;DHT22;8808;52.478;13.378;2023-11-25T09:03:23;3.00;99.90
17381;DHT22;8808;52.478;13.378;2023-11-25T09:05:50;3.30;99.90
17381;DHT22;8808;52.478;13.378;2023-11-25T09:08:17;3.40;99.90
17381;DHT22;8808;52.478;13.378;2023-11-25T09:10:44;3.60;99.90
17381;DHT22;8808;52.478;13.378;2023-11-25T09:13:11;3.60;99.90
17381;DHT22;8808;52.478;13.378;2023-11-25T09:15:39;3.90;99.90
17381;DHT22;8808;52.478;13.378;2023-11-25T09:18:06;3.80;99.90
17381;DHT22;8808;52.478;13.378;2023-11-25T09:20:33;3.80;99.90
17381;DHT22;8808;52.478;13.378;2023-11-25T09:23:01;3.70;99.90
17381;DHT22;8808;52.478;13.378;2023-11-25T09:25:28;3.70;99.90
17381;DHT22;8808;52.478;13.378;2023-11-25T09:27:57;3.70;99.90
17381;DHT22;8808;52.478;13.378;2023-11-25T09:30:24;3.70;99.90
17381;DHT22;8808;52.478;13.378;2023-11-25T09:32:53;3.60;99.90
17381;DHT22;8808;52.478;13.378;2023-11-25T09:35:20;3.70;99.90
17381;DHT22;8808;52.478;13.378;2023-11-25T09:37:47;3.70;99.90
17381;DHT22;8808;52.478;13.378;2023-11-25T09:40:16;3.60;99.90
17381;DHT22;8808;52.478;13.378;2023-11-25T09:42:45;3.70;99.90
17381;DHT22;8808;52.478;13.378;2023-11-25T09:45:12;3.80;99.90
17381;DHT22;8808;52.478;13.378;2023-11-25T09:47:41;3.90;99.90
17381;DHT22;8808;52.478;13.378;2023-11-25T09:50:11;3.80;99.90
17381;DHT22;8808;52.478;13.378;2023-11-25T09:52:43;3.80;99.90
17381;DHT22;8808;52.478;13.378;2023-11-25T09:55:15;3.80;99.90
17381;DHT22;8808;52.478;13.378;2023-11-25T09:57:45;3.70;99.90
17381;DHT22;8808;52.478;13.378;2023-11-25T10:00:13;3.80;99.90
17381;DHT22;8808;52.478;13.378;2023-11-25T10:02:43;3.80;99.90
17381;DHT22;8808;52.478;13.378;2023-11-25T10:05:12;3.70;99.90
17381;DHT22;8808;52.478;13.378;2023-11-25T10:07:39;3.80;99.90
17381;DHT22;8808;52.478;13.378;2023-11-25T10:10:07;3.90;99.90
17381;DHT22;8808;52.478;13.378;2023-11-25T10:12:35;3.90;99.90
17381;DHT22;8808;52.478;13.378;2023-11-25T10:15:02;4.00;99.90
17381;DHT22;8808;52.478;13.378;2023-11-25T10:17:29;4.10;99.90
17381;DHT22;8808;52.478;13.378;2023-11-25T10:20:04;4.40;99.90
17381;DHT22;8808;52.478;13.378;2023-11-25T10:22:45;4.30;99.90
17381;DHT22;8808;52.478;13.378;2023-11-25T10:25:14;4.20;99.90
17381;DHT22;8808;52.478;13.378;2023-11-25T10:27:42;4.20;99.90
17381;DHT22;8808;52.478;13.378;2023-11-25T10:30:12;4.30;99.90
17381;DHT22;8808;52.478;13.378;2023-11-25T10:32:39;4.30;99.90
17381;DHT22;8808;52.478;13.378;2023-11-25T10:35:07;4.30;99.90
17381;DHT22;8808;52.478;13.378;2023-11-25T10:37:36;4.40;99.90
17381;DHT22;8808;52.478;13.378;2023-11-25T10:40:07;4.40;99.90
17381;DHT22;8808;52.478;13.378;2023-11-25T10:42:36;4.20;99.90
17381;DHT22;8808;52.478;13.378;2023-11-25T10:45:04;4.40;99.90
17381;DHT22;8808;52.478;13.378;2023-11-25T10:47:32;4.40;99.90
17381;DHT22;8808;52.478;13.378;2023-11-25T10:49:59;4.50;99.90
17381;DHT22;8808;52.478;13.378;2023-11-25T10:52:30;4.50;99.90
17381;DHT22;8808;52.478;13.378;2023-11-25T10:54:58;4.60;99.90
17381;DHT22;8808;52.478;13.378;2023-11-25T10:57:27;4.70;99.90
17381;DHT22;8808;52.478;13.378;2023-11-25T10:59:56;4.80;99.90
17381;DHT22;8808;52.478;13.378;2023-11-25T11:02:27;4.70;99.90
17381;DHT22;8808;52.478;13.378;2023-11-25T11:04:57;4.60;99.90
17381;DHT22;8808;52.478;13.378;2023-11-25T11:07:26;4.60;99.90
17381;DHT22;8808;52.478;13.378;2023-11-25T11:09:57;4.70;99.90
17381;DHT22;8808;52.478;13.378;2023-11-25T11:12:34;4.60;99.90
17381;DHT22;8808;52.478;13.378;2023-11-25T11:15:04;4.50;99.90
17381;DHT22;8808;52.478;13.378;2023-11-25T11:17:42;4.60;99.90
17381;DHT22;8808;52.478;13.378;2023-11-25T11:20:12;4.60;99.90
17381;DHT22;8808;52.478;13.378;2023-11-25T11:22:41;4.50;99.90
17381;DHT22;8808;52.478;13.378;2023-11-25T11:25:14;4.40;99.90
17381;DHT22;8808;52.478;13.378;2023-11-25T11:27:50;4.40;99.90
17381;DHT22;8808;52.478;13.378;2023-11-25T11:30:26;4.50;99.90
17381;DHT22;8808;52.478;13.378;2023-11-25T11:32:55;4.50;99.90
17381;DHT22;8808;52.478;13.378;2023-11-25T11:35:34;4.50;99.90
17381;DHT22;8808;52.478;13.378;2023-11-25T11:38:22;4.40;99.90
17381;DHT22;8808;52.478;13.378;2023-11-25T11:40:51;4.40;99.90
17381;DHT22;8808;52.478;13.378;2023-11-25T11:43:20;4.30;99.90
17381;DHT22;8808;52.478;13.378;2023-11-25T11:45:48;4.40;99.90
17381;DHT22;8808;52.478;13.378;2023-11-25T11:48:15;4.40;99.90
17381;DHT22;8808;52.478;13.378;2023-11-25T11:50:43;4.30;99.90
17381;DHT22;8808;52.478;13.378;2023-11-25T11:53:12;4.60;99.90
17381;DHT22;8808;52.478;13.378;2023-11-25T11:55:40;4.30;99.90
17381;DHT22;8808;52.478;13.378;2023-11-25T11:58:08;4.20;99.90
17381;DHT22;8808;52.478;13.378;2023-11-25T12:00:39;4.10;99.90
17381;DHT22;8808;52.478;13.378;2023-11-25T12:03:06;4.20;99.90
17381;DHT22;8808;52.478;13.378;2023-11-25T12:05:34;4.30;99.90
17381;DHT22;8808;52.478;13.378;2023-11-25T12:08:01;4.10;99.90
17381;DHT22;8808;52.478;13.378;2023-11-25T12:10:28;3.90;99.90
17381;DHT22;8808;52.478;13.378;2023-11-25T12:12:55;4.00;99.90
17381;DHT22;8808;52.478;13.378;2023-11-25T12:15:23;3.80;99.90
17381;DHT22;8808;52.478;13.378;2023-11-25T12:17:51;3.70;99.90
17381;DHT22;8808;52.478;13.378;2023-11-25T12:20:19;3.80;99.90
17381;DHT22;8808;52.478;13.378;2023-11-25T12:22:47;3.80;99.90
17381;DHT22;8808;52.478;13.378;2023-11-25T12:25:14;3.70;99.90
17381;DHT22;8808;52.478;13.378;2023-11-25T12:27:49;3.70;99.90
17381;DHT22;8808;52.478;13.378;2023-11-25T12:30:17;3.70;99.90
17381;DHT22;8808;52.478;13.378;2023-11-25T12:32:45;3.70;99.90
17381;DHT22;8808;52.478;13.378;2023-11-25T12:35:13;3.70;99.90
17381;DHT22;8808;52.478;13.378;2023-11-25T12:37:41;3.60;99.90
17381;DHT22;8808;52.478;13.378;2023-11-25T12:40:20;3.60;99.90
17381;DHT22;8808;52.478;13.378;2023-11-25T12:42:50;3.60;99.90
17381;DHT22;8808;52.478;13.378;2023-11-25T12:45:31;3.50;99.90
17381;DHT22;8808;52.478;13.378;2023-11-25T12:47:58;3.50;99.90
17381;DHT22;8808;52.478;13.378;2023-11-25T12:50:27;3.60;99.90
17381;DHT22;8808;52.478;13.378;2023-11-25T12:53:03;3.50;99.90
17381;DHT22;8808;52.478;13.378;2023-11-25T12:55:36;3.50;99.90
17381;DHT22;8808;52.478;13.378;2023-11-25T12:58:05;3.50;99.90
17381;DHT22;8808;52.478;13.378;2023-11-25T13:00:33;3.50;99.90
17381;DHT22;8808;52.478;13.378;2023-11-25T13:03:00;3.50;99.90
17381;DHT22;8808;52.478;13.378;2023-11-25T13:05:31;3.50;99.90
17381;DHT22;8808;52.478;13.378;2023-11-25T13:07:58;3.60;99.90
17381;DHT22;8808;52.478;13.378;2023-11-25T13:10:25;3.50;99.90
17381;DHT22;8808;52.478;13.378;2023-11-25T13:12:53;3.60;99.90
17381;DHT22;8808;52.478;13.378;2023-11-25T13:15:20;3.50;99.90
17381;DHT22;8808;52.478;13.378;2023-11-25T13:17:48;3.50;99.90
17381;DHT22;8808;52.478;13.378;2023-11-25T13:20:15;3.50;99.90
17381;DHT22;8808;52.478;13.378;2023-11-25T13:22:44;3.60;99.90
17381;DHT22;8808;52.478;13.378;2023-11-25T13:25:11;3.50;99.90
17381;DHT22;8808;52.478;13.378;2023-11-25T13:27:39;3.50;99.90
17381;DHT22;8808;52.478;13.378;2023-11-25T13:30:07;3.40;99.90
17381;DHT22;8808;52.478;13.378;2023-11-25T13:32:36;3.50;99.90
17381;DHT22;8808;52.478;13.378;2023-11-25T13:35:04;3.40;99.90
17381;DHT22;8808;52.478;13.378;2023-11-25T13:37:31;3.50;99.90
17381;DHT22;8808;52.478;13.378;2023-11-25T13:40:03;3.60;99.90
17381;DHT22;8808;52.478;13.378;2023-11-25T13:42:32;3.50;99.90
17381;DHT22;8808;52.478;13.378;2023-11-25T13:45:00;3.50;99.90
17381;DHT22;8808;52.478;13.378;2023-11-25T13:47:26;3.30;99.90
17381;DHT22;8808;52.478;13.378;2023-11-25T13:49:53;3.20;99.90
17381;DHT22;8808;52.478;13.378;2023-11-25T13:52:20;3.40;99.90
17381;DHT22;8808;52.478;13.378;2023-11-25T13:54:47;3.40;99.90
17381;DHT22;8808;52.478;13.378;2023-11-25T13:57:15;3.40;99.90
17381;DHT22;8808;52.478;13.378;2023-11-25T13:59:42;3.40;99.90
17381;DHT22;8808;52.478;13.378;2023-11-25T14:02:09;3.30;99.90
17381;DHT22;8808;52.478;13.378;2023-11-25T14:04:37;3.30;99.90
17381;DHT22;8808;52.478;13.378;2023-11-25T14:07:05;3.30;99.90
17381;DHT22;8808;52.478;13.378;2023-11-25T14:09:31;3.50;99.90
17381;DHT22;8808;52.478;13.378;2023-11-25T14:11:59;3.40;99.90
17381;DHT22;8808;52.478;13.378;2023-11-25T14:14:28;3.20;99.90
17381;DHT22;8808;52.478;13.378;2023-11-25T14:16:56;3.30;99.90
17381;DHT22;8808;52.478;13.378;2023-11-25T14:19:24;3.30;99.90
17381;DHT22;8808;52.478;13.378;2023-11-25T14:21:51;3.30;99.90
17381;DHT22;8808;52.478;13.378;2023-11-25T14:24:18;3.40;99.90
17381;DHT22;8808;52.478;13.378;2023-11-25T14:26:47;3.50;99.90
17381;DHT22;8808;52.478;13.378;2023-11-25T14:29:14;3.30;99.90
17381;DHT22;8808;52.478;13.378;2023-11-25T14:31:42;3.30;99.90
17381;DHT22;8808;52.478;13.378;2023-11-25T14:34:10;3.40;99.90
17381;DHT22;8808;52.478;13.378;2023-11-25T14:36:37;3.10;99.90
17381;DHT22;8808;52.478;13.378;2023-11-25T14:39:04;3.30;99.90
17381;DHT22;8808;52.478;13.378;2023-11-25T14:41:34;3.30;99.90
17381;DHT22;8808;52.478;13.378;2023-11-25T14:44:01;3.20;99.90
17381;DHT22;8808;52.478;13.378;2023-11-25T14:46:28;3.20;99.90
17381;DHT22;8808;52.478;13.378;2023-11-25T14:48:57;3.30;99.90
17381;DHT22;8808;52.478;13.378;2023-11-25T14:51:26;3.30;99.90
17381;DHT22;8808;52.478;13.378;2023-11-25T14:53:52;3.20;99.90
17381;DHT22;8808;52.478;13.378;2023-11-25T14:56:19;3.20;99.90
17381;DHT22;8808;52.478;13.378;2023-11-25T14:58:46;3.20;99.90
17381;DHT22;8808;52.478;13.378;2023-11-25T15:01:13;3.20;99.90
17381;DHT22;8808;52.478;13.378;2023-11-25T15:03:42;3.10;99.90
17381;DHT22;8808;52.478;13.378;2023-11-25T15:06:10;3.10;99.90
17381;DHT22;8808;52.478;13.378;2023-11-25T15:08:37;3.20;99.90
17381;DHT22;8808;52.478;13.378;2023-11-25T15:11:05;3.20;99.90
17381;DHT22;8808;52.478;13.378;2023-11-25T15:13:32;3.10;99.90
17381;DHT22;8808;52.478;13.378;2023-11-25T15:15:59;3.20;99.90
17381;DHT22;8808;52.478;13.378;2023-11-25T15:18:26;3.20;99.90
17381;DHT22;8808;52.478;13.378;2023-11-25T15:20:54;3.10;99.90
17381;DHT22;8808;52.478;13.378;2023-11-25T15:23:23;3.20;99.90
17381;DHT22;8808;52.478;13.378;2023-11-25T15:25:50;3.30;99.90
17381;DHT22;8808;52.478;13.378;2023-11-25T15:28:17;3.20;99.90
17381;DHT22;8808;52.478;13.378;2023-11-25T15:30:46;3.30;99.90
17381;DHT22;8808;52.478;13.378;2023-11-25T15:33:14;3.20;99.90
17381;DHT22;8808;52.478;13.378;2023-11-25T15:35:41;3.30;99.90
17381;DHT22;8808;52.478;13.378;2023-11-25T15:38:08;3.30;99.90
17381;DHT22;8808;52.478;13.378;2023-11-25T15:40:37;3.20;99.90
17381;DHT22;8808;52.478;13.378;2023-11-25T15:43:04;3.40;99.90
17381;DHT22;8808;52.478;13.378;2023-11-25T15:45:31;3.40;99.90
17381;DHT22;8808;52.478;13.378;2023-11-25T15:47:59;3.30;99.90
17381;DHT22;8808;52.478;13.378;2023-11-25T15:50:27;3.20;99.90
17381;DHT22;8808;52.478;13.378;2023-11-25T15:52:54;3.30;99.90